sensor_id;sensor_type;location;lat;lon;timestamp;pressure;altitude;pressure_sealevel;temperature;humidity
72558;BME280;60583;50.094;8.748;2022-10-17T00:01:28;100941.66;;;14.73;97.13
72558;BME280;60583;50.094;8.748;2022-10-17T00:03:53;100943.53;;;14.66;96.75
72558;BME280;60583;50.094;8.748;2022-10-17T00:06:18;100947.47;;;14.63;97.12
72558;BME280;60583;50.094;8.748;2022-10-17T00:08:44;100941.72;;;14.60;97.28
72558;BME280;60583;50.094;8.748;2022-10-17T00:11:27;100946.44;;;14.58;97.52
72558;BME280;60583;50.094;8.748;2022-10-17T00:13:54;100947.09;;;14.60;97.44
72558;BME280;60583;50.094;8.748;2022-10-17T00:16:31;100948.28;;;14.64;96.90
72558;BME280;60583;50.094;8.748;2022-10-17T00:18:58;100954.69;;;14.63;97.33
72558;BME280;60583;50.094;8.748;2022-10-17T00:21:24;100949.16;;;14.51;97.15
72558;BME280;60583;50.094;8.748;2022-10-17T00:23:50;100958.22;;;14.57;96.73
72558;BME280;60583;50.094;8.748;2022-10-17T00:26:15;100957.81;;;14.60;97.26
72558;BME280;60583;50.094;8.748;2022-10-17T00:28:41;100949.97;;;14.58;96.94
72558;BME280;60583;50.094;8.748;2022-10-17T00:31:07;100957.00;;;14.59;96.43
72558;BME280;60583;50.094;8.748;2022-10-17T00:33:33;100950.78;;;14.59;96.99
72558;BME280;60583;50.094;8.748;2022-10-17T00:36:07;100956.56;;;14.56;96.29
72558;BME280;60583;50.094;8.748;2022-10-17T00:38:33;100956.78;;;14.48;95.51
72558;BME280;60583;50.094;8.748;2022-10-17T00:40:59;100961.56;;;14.46;96.08
72558;BME280;60583;50.094;8.748;2022-10-17T00:43:25;100965.28;;;14.45;95.57
72558;BME280;60583;50.094;8.748;2022-10-17T00:45:51;100958.25;;;14.44;95.83
72558;BME280;60583;50.094;8.748;2022-10-17T00:48:17;100960.34;;;14.42;95.80
72558;BME280;60583;50.094;8.748;2022-10-17T00:50:45;100961.56;;;14.39;95.86
72558;BME280;60583;50.094;8.748;2022-10-17T00:53:13;100963.22;;;14.40;95.77
72558;BME280;60583;50.094;8.748;2022-10-17T00:55:50;100962.78;;;14.43;95.65
72558;BME280;60583;50.094;8.748;2022-10-17T00:58:18;100965.91;;;14.47;95.33
72558;BME280;60583;50.094;8.748;2022-10-17T01:00:46;100969.41;;;14.41;95.38
72558;BME280;60583;50.094;8.748;2022-10-17T01:03:12;100971.25;;;14.40;95.34
72558;BME280;60583;50.094;8.748;2022-10-17T01:05:39;100964.88;;;14.35;95.38
72558;BME280;60583;50.094;8.748;2022-10-17T01:08:06;100972.28;;;14.26;95.77
72558;BME280;60583;50.094;8.748;2022-10-17T01:13:34;100976.63;;;14.21;95.62
72558;BME280;60583;50.094;8.748;2022-10-17T01:16:12;100981.16;;;14.20;95.73
72558;BME280;60583;50.094;8.748;2022-10-17T01:19:03;100981.78;;;14.16;95.90
72558;BME280;60583;50.094;8.748;2022-10-17T01:21:47;100980.13;;;14.08;97.41
72558;BME280;60583;50.094;8.748;2022-10-17T01:24:38;100985.91;;;14.05;98.00
72558;BME280;60583;50.094;8.748;2022-10-17T01:30:11;100983.44;;;14.10;96.36
72558;BME280;60583;50.094;8.748;2022-10-17T01:32:58;100971.91;;;14.10;95.90
72558;BME280;60583;50.094;8.748;2022-10-17T01:35:55;100975.00;;;14.06;95.92
72558;BME280;60583;50.094;8.748;2022-10-17T01:38:33;100973.13;;;14.14;95.54
72558;BME280;60583;50.094;8.748;2022-10-17T01:41:15;100966.53;;;14.10;95.18
72558;BME280;60583;50.094;8.748;2022-10-17T01:43:48;100969.00;;;14.04;95.35
72558;BME280;60583;50.094;8.748;2022-10-17T01:46:23;100971.28;;;14.01;95.05
72558;BME280;60583;50.094;8.748;2022-10-17T01:48:52;100974.78;;;13.88;95.90
72558;BME280;60583;50.094;8.748;2022-10-17T01:51:22;100973.53;;;13.91;96.39
72558;BME280;60583;50.094;8.748;2022-10-17T01:53:56;100972.72;;;13.97;96.69
72558;BME280;60583;50.094;8.748;2022-10-17T01:56:25;100968.78;;;13.93;95.96
72558;BME280;60583;50.094;8.748;2022-10-17T01:58:57;100967.53;;;13.82;95.84
72558;BME280;60583;50.094;8.748;2022-10-17T02:01:27;100960.34;;;13.89;95.88
72558;BME280;60583;50.094;8.748;2022-10-17T02:03:55;100965.50;;;13.84;95.68
72558;BME280;60583;50.094;8.748;2022-10-17T02:06:22;100959.09;;;13.85;95.49
72558;BME280;60583;50.094;8.748;2022-10-17T02:08:48;100974.97;;;13.80;95.39
72558;BME280;60583;50.094;8.748;2022-10-17T02:11:22;100965.47;;;13.78;95.30
72558;BME280;60583;50.094;8.748;2022-10-17T02:22:05;100966.09;;;13.73;94.67
72558;BME280;60583;50.094;8.748;2022-10-17T02:24:43;100963.00;;;13.63;94.58
72558;BME280;60583;50.094;8.748;2022-10-17T02:27:18;100959.69;;;13.61;94.66
72558;BME280;60583;50.094;8.748;2022-10-17T02:29:55;100966.06;;;13.60;94.36
72558;BME280;60583;50.094;8.748;2022-10-17T02:32:27;100978.03;;;13.58;94.59
72558;BME280;60583;50.094;8.748;2022-10-17T02:34:59;100970.00;;;13.58;94.80
72558;BME280;60583;50.094;8.748;2022-10-17T02:37:27;100976.41;;;13.57;94.52
72558;BME280;60583;50.094;8.748;2022-10-17T02:39:56;100975.97;;;13.60;94.60
72558;BME280;60583;50.094;8.748;2022-10-17T02:42:23;100978.06;;;13.64;94.17
72558;BME280;60583;50.094;8.748;2022-10-17T02:44:49;100978.84;;;13.52;94.54
72558;BME280;60583;50.094;8.748;2022-10-17T02:47:35;100980.31;;;13.54;94.41
72558;BME280;60583;50.094;8.748;2022-10-17T02:50:02;100976.75;;;13.47;94.49
72558;BME280;60583;50.094;8.748;2022-10-17T02:52:56;100986.25;;;13.36;94.78
72558;BME280;60583;50.094;8.748;2022-10-17T02:55:30;100985.59;;;13.34;95.03
72558;BME280;60583;50.094;8.748;2022-10-17T02:57:59;100988.25;;;13.28;95.21
72558;BME280;60583;50.094;8.748;2022-10-17T03:00:28;100994.84;;;13.25;95.40
72558;BME280;60583;50.094;8.748;2022-10-17T03:02:55;100992.38;;;13.24;95.61
72558;BME280;60583;50.094;8.748;2022-10-17T03:05:23;100993.00;;;13.26;95.44
72558;BME280;60583;50.094;8.748;2022-10-17T03:07:49;100997.31;;;13.27;95.29
72558;BME280;60583;50.094;8.748;2022-10-17T03:10:16;100980.84;;;13.23;95.17
72558;BME280;60583;50.094;8.748;2022-10-17T03:12:41;100993.41;;;13.23;95.03
72558;BME280;60583;50.094;8.748;2022-10-17T03:15:07;101001.44;;;13.23;95.37
72558;BME280;60583;50.094;8.748;2022-10-17T03:17:34;100999.59;;;13.23;95.43
72558;BME280;60583;50.094;8.748;2022-10-17T03:19:59;100998.75;;;13.23;95.50
72558;BME280;60583;50.094;8.748;2022-10-17T03:22:24;101001.59;;;13.15;95.78
72558;BME280;60583;50.094;8.748;2022-10-17T03:24:50;101004.28;;;13.15;96.00
72558;BME280;60583;50.094;8.748;2022-10-17T03:27:15;100997.91;;;13.22;95.59
72558;BME280;60583;50.094;8.748;2022-10-17T03:29:40;100997.28;;;13.14;96.94
72558;BME280;60583;50.094;8.748;2022-10-17T03:32:06;101003.25;;;13.16;97.05
72558;BME280;60583;50.094;8.748;2022-10-17T03:34:32;101012.53;;;13.20;96.40
72558;BME280;60583;50.094;8.748;2022-10-17T03:36:57;101010.06;;;13.18;96.38
72558;BME280;60583;50.094;8.748;2022-10-17T03:39:22;101015.59;;;13.17;95.75
72558;BME280;60583;50.094;8.748;2022-10-17T03:41:48;101007.19;;;13.20;95.52
72558;BME280;60583;50.094;8.748;2022-10-17T03:44:14;101019.50;;;13.14;96.40
72558;BME280;60583;50.094;8.748;2022-10-17T03:46:39;101016.66;;;13.16;97.68
72558;BME280;60583;50.094;8.748;2022-10-17T03:49:04;101005.94;;;13.16;97.57
72558;BME280;60583;50.094;8.748;2022-10-17T03:51:31;101011.72;;;13.19;96.83
72558;BME280;60583;50.094;8.748;2022-10-17T03:53:57;101025.75;;;13.21;95.80
72558;BME280;60583;50.094;8.748;2022-10-17T03:56:23;101023.63;;;13.10;96.29
72558;BME280;60583;50.094;8.748;2022-10-17T03:58:49;101026.09;;;13.12;96.00
72558;BME280;60583;50.094;8.748;2022-10-17T04:01:16;101031.69;;;13.17;95.73
72558;BME280;60583;50.094;8.748;2022-10-17T04:03:42;101028.34;;;13.08;95.51
72558;BME280;60583;50.094;8.748;2022-10-17T04:06:10;101028.03;;;12.97;95.99
72558;BME280;60583;50.094;8.748;2022-10-17T04:08:35;101035.06;;;12.98;95.82
72558;BME280;60583;50.094;8.748;2022-10-17T04:11:03;101033.25;;;13.05;95.74
72558;BME280;60583;50.094;8.748;2022-10-17T04:13:29;101036.69;;;12.92;95.95
72558;BME280;60583;50.094;8.748;2022-10-17T04:16:00;101033.81;;;12.94;95.55
72558;BME280;60583;50.094;8.748;2022-10-17T04:18:27;101033.00;;;12.93;96.05
72558;BME280;60583;50.094;8.748;2022-10-17T04:20:52;101034.59;;;12.88;95.69
72558;BME280;60583;50.094;8.748;2022-10-17T04:23:18;101040.34;;;12.85;96.28
72558;BME280;60583;50.094;8.748;2022-10-17T04:25:44;101037.91;;;12.90;95.98
72558;BME280;60583;50.094;8.748;2022-10-17T04:28:09;101044.84;;;12.77;96.94
72558;BME280;60583;50.094;8.748;2022-10-17T04:30:35;101041.53;;;12.75;96.88
72558;BME280;60583;50.094;8.748;2022-10-17T04:33:00;101042.19;;;12.84;96.51
72558;BME280;60583;50.094;8.748;2022-10-17T04:35:25;101041.63;;;12.89;96.53
72558;BME280;60583;50.094;8.748;2022-10-17T04:37:51;101042.00;;;12.86;97.07
72558;BME280;60583;50.094;8.748;2022-10-17T04:40:16;101038.13;;;12.95;96.96
72558;BME280;60583;50.094;8.748;2022-10-17T04:42:42;101052.38;;;13.02;96.54
72558;BME280;60583;50.094;8.748;2022-10-17T04:45:07;101045.38;;;13.01;96.37
72558;BME280;60583;50.094;8.748;2022-10-17T04:47:33;101056.09;;;13.01;96.65
72558;BME280;60583;50.094;8.748;2022-10-17T04:49:58;101054.63;;;12.98;96.11
72558;BME280;60583;50.094;8.748;2022-10-17T04:52:23;101053.41;;;13.01;96.27
72558;BME280;60583;50.094;8.748;2022-10-17T04:54:50;101059.44;;;13.09;95.77
72558;BME280;60583;50.094;8.748;2022-10-17T04:57:16;101059.44;;;13.09;95.48
72558;BME280;60583;50.094;8.748;2022-10-17T04:59:41;101057.56;;;13.03;95.32
72558;BME280;60583;50.094;8.748;2022-10-17T05:02:07;101059.78;;;13.00;95.79
72558;BME280;60583;50.094;8.748;2022-10-17T05:04:32;101057.09;;;12.93;95.96
72558;BME280;60583;50.094;8.748;2022-10-17T05:06:57;101054.59;;;12.92;96.87
72558;BME280;60583;50.094;8.748;2022-10-17T05:09:23;101056.88;;;12.95;96.39
72558;BME280;60583;50.094;8.748;2022-10-17T05:11:48;101056.47;;;12.98;96.15
72558;BME280;60583;50.094;8.748;2022-10-17T05:14:14;101059.78;;;13.00;95.89
72558;BME280;60583;50.094;8.748;2022-10-17T05:16:39;101062.38;;;12.87;96.11
72558;BME280;60583;50.094;8.748;2022-10-17T05:19:05;101063.41;;;12.86;96.15
72558;BME280;60583;50.094;8.748;2022-10-17T05:21:30;101068.31;;;12.82;96.52
72558;BME280;60583;50.094;8.748;2022-10-17T05:23:56;101058.44;;;12.82;96.40
72558;BME280;60583;50.094;8.748;2022-10-17T05:26:22;101062.59;;;12.85;96.07
72558;BME280;60583;50.094;8.748;2022-10-17T05:28:48;101058.69;;;12.88;96.57
72558;BME280;60583;50.094;8.748;2022-10-17T05:31:13;101059.06;;;12.85;96.18
72558;BME280;60583;50.094;8.748;2022-10-17T05:33:39;101061.72;;;12.78;96.16
72558;BME280;60583;50.094;8.748;2022-10-17T05:36:05;101058.91;;;12.86;95.74
72558;BME280;60583;50.094;8.748;2022-10-17T05:38:31;101068.38;;;12.89;95.84
72558;BME280;60583;50.094;8.748;2022-10-17T05:40:58;101064.44;;;12.85;95.57
72558;BME280;60583;50.094;8.748;2022-10-17T05:43:23;101070.41;;;12.87;95.71
72558;BME280;60583;50.094;8.748;2022-10-17T05:45:49;101067.09;;;12.85;96.13
72558;BME280;60583;50.094;8.748;2022-10-17T05:48:15;101070.38;;;12.80;95.80
72558;BME280;60583;50.094;8.748;2022-10-17T05:50:40;101076.56;;;12.80;96.38
72558;BME280;60583;50.094;8.748;2022-10-17T05:53:05;101071.84;;;12.82;95.92
72558;BME280;60583;50.094;8.748;2022-10-17T05:55:31;101065.06;;;12.87;95.56
72558;BME280;60583;50.094;8.748;2022-10-17T05:57:56;101064.66;;;12.90;95.83
72558;BME280;60583;50.094;8.748;2022-10-17T06:00:23;101049.94;;;12.72;95.86
72558;BME280;60583;50.094;8.748;2022-10-17T06:02:48;101073.09;;;12.87;95.22
72558;BME280;60583;50.094;8.748;2022-10-17T06:05:14;101071.25;;;12.87;95.10
72558;BME280;60583;50.094;8.748;2022-10-17T06:07:39;101073.28;;;12.85;95.60
72558;BME280;60583;50.094;8.748;2022-10-17T06:10:06;101076.56;;;12.80;97.07
72558;BME280;60583;50.094;8.748;2022-10-17T06:12:31;101074.28;;;12.77;98.48
72558;BME280;60583;50.094;8.748;2022-10-17T06:14:56;101088.66;;;12.76;97.45
72558;BME280;60583;50.094;8.748;2022-10-17T06:17:22;101087.41;;;12.72;97.27
72558;BME280;60583;50.094;8.748;2022-10-17T06:19:47;101090.13;;;12.79;96.54
72558;BME280;60583;50.094;8.748;2022-10-17T06:22:12;101094.69;;;12.78;95.90
72558;BME280;60583;50.094;8.748;2022-10-17T06:24:38;101103.81;;;12.91;95.25
72558;BME280;60583;50.094;8.748;2022-10-17T06:27:03;101096.63;;;12.91;95.73
72558;BME280;60583;50.094;8.748;2022-10-17T06:29:29;101094.75;;;12.92;95.42
72558;BME280;60583;50.094;8.748;2022-10-17T06:31:54;101096.78;;;12.90;95.36
72558;BME280;60583;50.094;8.748;2022-10-17T06:34:19;101106.66;;;12.89;95.73
72558;BME280;60583;50.094;8.748;2022-10-17T06:36:45;101107.16;;;12.99;96.23
72558;BME280;60583;50.094;8.748;2022-10-17T06:39:10;101108.81;;;13.00;97.05
72558;BME280;60583;50.094;8.748;2022-10-17T06:41:35;101104.34;;;13.07;98.14
72558;BME280;60583;50.094;8.748;2022-10-17T06:44:01;101110.22;;;13.24;98.15
72558;BME280;60583;50.094;8.748;2022-10-17T06:46:32;101113.53;;;13.26;96.69
72558;BME280;60583;50.094;8.748;2022-10-17T06:48:57;101121.00;;;13.37;96.91
72558;BME280;60583;50.094;8.748;2022-10-17T06:51:22;101116.09;;;13.47;97.38
72558;BME280;60583;50.094;8.748;2022-10-17T06:53:48;101111.19;;;13.57;96.07
72558;BME280;60583;50.094;8.748;2022-10-17T06:56:13;101118.66;;;13.68;96.42
72558;BME280;60583;50.094;8.748;2022-10-17T06:58:40;101124.25;;;13.80;96.18
72558;BME280;60583;50.094;8.748;2022-10-17T07:01:08;101121.22;;;13.89;95.45
72558;BME280;60583;50.094;8.748;2022-10-17T07:03:34;101130.31;;;14.08;94.59
72558;BME280;60583;50.094;8.748;2022-10-17T07:06:00;101136.97;;;14.19;94.31
72558;BME280;60583;50.094;8.748;2022-10-17T07:08:26;101134.09;;;14.27;93.98
72558;BME280;60583;50.094;8.748;2022-10-17T07:10:51;101127.94;;;14.39;93.55
72558;BME280;60583;50.094;8.748;2022-10-17T07:13:18;101124.84;;;14.55;92.72
72558;BME280;60583;50.094;8.748;2022-10-17T07:15:44;101127.34;;;14.70;92.77
72558;BME280;60583;50.094;8.748;2022-10-17T07:18:09;101126.31;;;14.78;92.14
72558;BME280;60583;50.094;8.748;2022-10-17T07:20:35;101123.59;;;14.97;91.48
72558;BME280;60583;50.094;8.748;2022-10-17T07:23:00;101120.44;;;15.13;91.32
72558;BME280;60583;50.094;8.748;2022-10-17T07:25:26;101132.81;;;15.34;90.04
72558;BME280;60583;50.094;8.748;2022-10-17T07:27:52;101127.63;;;15.39;89.33
72558;BME280;60583;50.094;8.748;2022-10-17T07:30:18;101138.31;;;15.59;89.26
72558;BME280;60583;50.094;8.748;2022-10-17T07:32:43;101142.22;;;15.69;89.33
72558;BME280;60583;50.094;8.748;2022-10-17T07:35:10;101149.41;;;15.82;89.01
72558;BME280;60583;50.094;8.748;2022-10-17T07:37:35;101150.97;;;15.96;88.50
72558;BME280;60583;50.094;8.748;2022-10-17T07:40:01;101160.84;;;16.15;88.18
72558;BME280;60583;50.094;8.748;2022-10-17T07:42:26;101158.44;;;16.32;87.09
72558;BME280;60583;50.094;8.748;2022-10-17T07:44:53;101161.19;;;16.56;87.35
72558;BME280;60583;50.094;8.748;2022-10-17T07:47:19;101167.97;;;16.66;86.30
72558;BME280;60583;50.094;8.748;2022-10-17T07:49:44;101159.50;;;16.87;85.94
72558;BME280;60583;50.094;8.748;2022-10-17T07:52:13;101164.78;;;17.00;85.50
72558;BME280;60583;50.094;8.748;2022-10-17T07:54:39;101164.97;;;17.23;85.12
72558;BME280;60583;50.094;8.748;2022-10-17T07:57:05;101163.78;;;17.37;82.72
72558;BME280;60583;50.094;8.748;2022-10-17T07:59:32;101151.88;;;17.45;82.78
72558;BME280;60583;50.094;8.748;2022-10-17T08:01:58;101153.31;;;17.65;82.38
72558;BME280;60583;50.094;8.748;2022-10-17T08:04:24;101168.81;;;17.88;81.81
72558;BME280;60583;50.094;8.748;2022-10-17T08:06:50;101159.44;;;17.91;81.77
72558;BME280;60583;50.094;8.748;2022-10-17T08:09:15;101167.69;;;17.96;82.08
72558;BME280;60583;50.094;8.748;2022-10-17T08:11:41;101158.72;;;18.13;81.05
72558;BME280;60583;50.094;8.748;2022-10-17T08:14:08;101164.81;;;18.09;81.93
72558;BME280;60583;50.094;8.748;2022-10-17T08:16:34;101165.66;;;18.21;81.98
72558;BME280;60583;50.094;8.748;2022-10-17T08:19:00;101157.22;;;18.17;83.11
72558;BME280;60583;50.094;8.748;2022-10-17T08:21:25;101150.00;;;18.41;83.24
72558;BME280;60583;50.094;8.748;2022-10-17T08:23:51;101163.94;;;18.56;81.00
72558;BME280;60583;50.094;8.748;2022-10-17T08:26:17;101160.56;;;18.72;79.80
72558;BME280;60583;50.094;8.748;2022-10-17T08:28:44;101159.84;;;18.77;78.18
72558;BME280;60583;50.094;8.748;2022-10-17T08:31:15;101166.91;;;18.78;78.35
72558;BME280;60583;50.094;8.748;2022-10-17T08:33:43;101163.47;;;18.59;78.42
72558;BME280;60583;50.094;8.748;2022-10-17T08:36:09;101160.78;;;18.59;78.50
72558;BME280;60583;50.094;8.748;2022-10-17T08:38:36;101172.88;;;18.68;77.77
72558;BME280;60583;50.094;8.748;2022-10-17T08:41:10;101166.91;;;18.78;77.98
72558;BME280;60583;50.094;8.748;2022-10-17T08:43:56;101169.50;;;18.84;77.96
72558;BME280;60583;50.094;8.748;2022-10-17T08:46:30;101163.28;;;18.95;78.08
72558;BME280;60583;50.094;8.748;2022-10-17T08:48:58;101171.75;;;19.10;77.76
72558;BME280;60583;50.094;8.748;2022-10-17T08:51:31;101171.28;;;19.13;77.46
72558;BME280;60583;50.094;8.748;2022-10-17T08:54:08;101163.16;;;19.25;78.25
72558;BME280;60583;50.094;8.748;2022-10-17T08:56:49;101160.13;;;19.33;79.45
72558;BME280;60583;50.094;8.748;2022-10-17T08:59:29;101153.03;;;19.44;79.04
72558;BME280;60583;50.094;8.748;2022-10-17T09:02:40;101159.88;;;19.58;78.21
72558;BME280;60583;50.094;8.748;2022-10-17T09:05:13;101155.03;;;19.60;78.44
72558;BME280;60583;50.094;8.748;2022-10-17T09:07:52;101145.56;;;19.74;77.86
72558;BME280;60583;50.094;8.748;2022-10-17T09:10:48;101148.81;;;19.88;76.58
72558;BME280;60583;50.094;8.748;2022-10-17T09:16:26;101152.75;;;19.80;75.12
72558;BME280;60583;50.094;8.748;2022-10-17T09:19:07;101156.13;;;19.87;74.78
72558;BME280;60583;50.094;8.748;2022-10-17T09:21:52;101161.06;;;19.90;74.57
72558;BME280;60583;50.094;8.748;2022-10-17T09:24:42;101169.44;;;19.89;73.96
72558;BME280;60583;50.094;8.748;2022-10-17T09:27:21;101177.50;;;20.00;73.62
72558;BME280;60583;50.094;8.748;2022-10-17T09:29:48;101179.09;;;20.24;72.87
72558;BME280;60583;50.094;8.748;2022-10-17T09:32:17;101184.88;;;20.45;71.35
72558;BME280;60583;50.094;8.748;2022-10-17T09:34:43;101184.09;;;20.94;69.67
72558;BME280;60583;50.094;8.748;2022-10-17T09:37:12;101186.28;;;21.69;66.81
72558;BME280;60583;50.094;8.748;2022-10-17T09:39:38;101183.56;;;22.60;63.51
72558;BME280;60583;50.094;8.748;2022-10-17T09:42:17;101185.75;;;23.79;59.99
72558;BME280;60583;50.094;8.748;2022-10-17T09:44:53;101175.63;;;24.46;57.34
72558;BME280;60583;50.094;8.748;2022-10-17T09:47:28;101173.44;;;24.58;56.33
72558;BME280;60583;50.094;8.748;2022-10-17T09:49:54;101174.00;;;25.01;55.69
72558;BME280;60583;50.094;8.748;2022-10-17T09:54:47;101161.38;;;26.14;51.59
72558;BME280;60583;50.094;8.748;2022-10-17T09:57:13;101174.84;;;26.44;50.41
72558;BME280;60583;50.094;8.748;2022-10-17T09:59:43;101182.28;;;26.78;50.00
72558;BME280;60583;50.094;8.748;2022-10-17T10:02:16;101182.50;;;27.67;46.54
72558;BME280;60583;50.094;8.748;2022-10-17T10:07:26;101192.44;;;27.06;45.68
72558;BME280;60583;50.094;8.748;2022-10-17T10:09:53;101189.16;;;27.61;44.74
72558;BME280;60583;50.094;8.748;2022-10-17T10:12:27;101187.28;;;28.23;43.52
72558;BME280;60583;50.094;8.748;2022-10-17T10:14:53;101191.63;;;29.12;42.25
72558;BME280;60583;50.094;8.748;2022-10-17T10:17:32;101188.94;;;29.94;40.11
72558;BME280;60583;50.094;8.748;2022-10-17T10:19:59;101186.56;;;30.14;38.99
72558;BME280;60583;50.094;8.748;2022-10-17T10:22:25;101189.38;;;30.94;37.83
72558;BME280;60583;50.094;8.748;2022-10-17T10:27:35;101185.19;;;30.03;38.60
72558;BME280;60583;50.094;8.748;2022-10-17T10:30:01;101182.44;;;30.39;38.28
72558;BME280;60583;50.094;8.748;2022-10-17T10:32:30;101184.75;;;31.04;37.10
72558;BME280;60583;50.094;8.748;2022-10-17T10:35:21;101185.03;;;31.02;36.41
72558;BME280;60583;50.094;8.748;2022-10-17T10:37:50;101195.38;;;30.03;38.60
72558;BME280;60583;50.094;8.748;2022-10-17T10:40:47;101177.34;;;30.90;36.79
72558;BME280;60583;50.094;8.748;2022-10-17T10:45:58;101180.19;;;30.05;38.23
72558;BME280;60583;50.094;8.748;2022-10-17T10:48:36;101177.75;;;29.90;38.40
72558;BME280;60583;50.094;8.748;2022-10-17T10:51:11;101182.47;;;30.25;38.03
72558;BME280;60583;50.094;8.748;2022-10-17T10:54:04;101187.47;;;30.37;37.34
72558;BME280;60583;50.094;8.748;2022-10-17T10:56:37;101178.34;;;30.72;36.66
72558;BME280;60583;50.094;8.748;2022-10-17T11:07:21;101173.81;;;32.34;33.93
72558;BME280;60583;50.094;8.748;2022-10-17T11:10:09;101182.44;;;32.32;33.10
72558;BME280;60583;50.094;8.748;2022-10-17T11:12:47;101176.31;;;33.16;31.43
72558;BME280;60583;50.094;8.748;2022-10-17T11:15:25;101185.66;;;32.43;32.60
72558;BME280;60583;50.094;8.748;2022-10-17T11:18:00;101177.97;;;33.17;31.50
72558;BME280;60583;50.094;8.748;2022-10-17T11:20:42;101180.13;;;32.94;32.69
72558;BME280;60583;50.094;8.748;2022-10-17T11:23:32;101185.13;;;33.18;31.29
72558;BME280;60583;50.094;8.748;2022-10-17T11:25:58;101194.63;;;34.13;29.55
72558;BME280;60583;50.094;8.748;2022-10-17T11:28:28;101186.03;;;34.27;29.87
72558;BME280;60583;50.094;8.748;2022-10-17T11:30:58;101193.25;;;34.19;29.75
72558;BME280;60583;50.094;8.748;2022-10-17T11:33:46;101190.94;;;34.83;29.76
72558;BME280;60583;50.094;8.748;2022-10-17T11:36:13;101191.91;;;35.44;29.05
72558;BME280;60583;50.094;8.748;2022-10-17T11:38:46;101189.00;;;35.41;27.73
72558;BME280;60583;50.094;8.748;2022-10-17T11:41:26;101185.50;;;33.83;30.68
72558;BME280;60583;50.094;8.748;2022-10-17T11:43:58;101185.63;;;33.87;30.66
72558;BME280;60583;50.094;8.748;2022-10-17T11:46:27;101183.19;;;33.10;31.35
72558;BME280;60583;50.094;8.748;2022-10-17T11:49:02;101185.00;;;32.97;31.80
72558;BME280;60583;50.094;8.748;2022-10-17T11:51:37;101190.97;;;33.25;30.91
72558;BME280;60583;50.094;8.748;2022-10-17T11:54:12;101199.31;;;32.13;32.30
72558;BME280;60583;50.094;8.748;2022-10-17T11:59:57;101182.38;;;33.18;31.11
72558;BME280;60583;50.094;8.748;2022-10-17T12:02:46;101191.31;;;33.15;31.59
72558;BME280;60583;50.094;8.748;2022-10-17T12:05:23;101186.94;;;33.60;31.02
72558;BME280;60583;50.094;8.748;2022-10-17T12:08:00;101180.38;;;33.18;31.34
72558;BME280;60583;50.094;8.748;2022-10-17T12:10:54;101178.31;;;33.07;32.21
72558;BME280;60583;50.094;8.748;2022-10-17T12:15:54;101175.13;;;33.34;32.21
72558;BME280;60583;50.094;8.748;2022-10-17T12:18:23;101178.47;;;33.10;31.42
72558;BME280;60583;50.094;8.748;2022-10-17T12:20:57;101174.81;;;33.35;31.82
72558;BME280;60583;50.094;8.748;2022-10-17T12:23:28;101181.28;;;32.50;32.84
72558;BME280;60583;50.094;8.748;2022-10-17T12:25:56;101180.47;;;32.33;33.77
72558;BME280;60583;50.094;8.748;2022-10-17T12:28:33;101173.91;;;30.27;36.47
72558;BME280;60583;50.094;8.748;2022-10-17T12:31:08;101158.06;;;30.10;37.07
72558;BME280;60583;50.094;8.748;2022-10-17T12:34:03;101169.00;;;31.74;34.29
72558;BME280;60583;50.094;8.748;2022-10-17T12:54:40;101176.41;;;32.30;33.14
72558;BME280;60583;50.094;8.748;2022-10-17T12:57:29;101175.31;;;31.66;34.52
72558;BME280;60583;50.094;8.748;2022-10-17T12:59:56;101181.75;;;31.53;34.84
72558;BME280;60583;50.094;8.748;2022-10-17T13:02:24;101172.97;;;30.31;36.76
72558;BME280;60583;50.094;8.748;2022-10-17T13:04:56;101186.69;;;28.95;40.00
72558;BME280;60583;50.094;8.748;2022-10-17T13:07:23;101178.16;;;28.09;42.08
72558;BME280;60583;50.094;8.748;2022-10-17T13:09:49;101190.81;;;27.05;44.67
72558;BME280;60583;50.094;8.748;2022-10-17T13:12:24;101187.34;;;26.60;46.44
72558;BME280;60583;50.094;8.748;2022-10-17T13:14:52;101187.59;;;26.20;47.02
72558;BME280;60583;50.094;8.748;2022-10-17T13:17:27;101181.19;;;25.81;48.70
72558;BME280;60583;50.094;8.748;2022-10-17T13:19:54;101181.72;;;25.83;48.54
72558;BME280;60583;50.094;8.748;2022-10-17T13:22:22;101179.69;;;25.34;50.08
72558;BME280;60583;50.094;8.748;2022-10-17T13:24:49;101182.41;;;25.40;50.03
72558;BME280;60583;50.094;8.748;2022-10-17T13:27:32;101180.22;;;25.47;50.31
72558;BME280;60583;50.094;8.748;2022-10-17T13:30:00;101177.00;;;25.14;51.11
72558;BME280;60583;50.094;8.748;2022-10-17T13:32:34;101187.94;;;25.04;52.09
72558;BME280;60583;50.094;8.748;2022-10-17T13:37:33;101181.38;;;24.95;52.37
72558;BME280;60583;50.094;8.748;2022-10-17T13:39:58;101195.31;;;24.89;52.57
72558;BME280;60583;50.094;8.748;2022-10-17T13:42:29;101191.47;;;24.69;52.84
72558;BME280;60583;50.094;8.748;2022-10-17T13:44:56;101205.31;;;24.38;53.30
72558;BME280;60583;50.094;8.748;2022-10-17T13:47:27;101195.47;;;24.22;54.23
72558;BME280;60583;50.094;8.748;2022-10-17T13:49:54;101199.28;;;24.16;54.34
72558;BME280;60583;50.094;8.748;2022-10-17T13:52:24;101210.44;;;24.09;55.25
72558;BME280;60583;50.094;8.748;2022-10-17T13:54:52;101196.53;;;24.16;54.86
72558;BME280;60583;50.094;8.748;2022-10-17T13:57:27;101202.81;;;24.16;55.36
72558;BME280;60583;50.094;8.748;2022-10-17T13:59:55;101203.53;;;23.96;55.98
72558;BME280;60583;50.094;8.748;2022-10-17T14:02:24;101204.56;;;23.80;56.15
72558;BME280;60583;50.094;8.748;2022-10-17T14:05:11;101193.97;;;23.84;56.24
72558;BME280;60583;50.094;8.748;2022-10-17T14:10:19;101198.59;;;23.83;56.64